createdAt,value
2022-09-02T00:03:38.811Z,8.90
2022-09-02T00:08:45.027Z,8.70
2022-09-02T00:13:51.991Z,8.70
2022-09-02T00:18:58.736Z,8.70
2022-09-02T00:24:06.091Z,8.60
2022-09-02T00:29:14.688Z,8.70
2022-09-02T00:34:20.967Z,8.60
2022-09-02T00:39:26.536Z,8.60
2022-09-02T00:44:32.158Z,8.60
2022-09-02T00:49:40.354Z,8.60
2022-09-02T00:54:49.063Z,8.50
2022-09-02T01:00:19.265Z,8.50
2022-09-02T01:05:27.355Z,8.30
2022-09-02T01:10:35.158Z,8.20
2022-09-02T01:15:44.433Z,8.30
2022-09-02T01:20:50.259Z,8.30
2022-09-02T01:25:56.269Z,8.50
2022-09-02T01:31:01.856Z,8.20
2022-09-02T01:36:08.993Z,8.10
2022-09-02T01:41:15.257Z,8.20
2022-09-02T01:46:21.431Z,8.20
2022-09-02T01:51:26.904Z,8.20
2022-09-02T01:56:32.246Z,8.10
2022-09-02T02:01:38.067Z,8.20
2022-09-02T02:06:45.951Z,8.00
2022-09-02T02:11:53.085Z,8.10
2022-09-02T02:16:58.619Z,8.20
2022-09-02T02:22:04.321Z,7.60
2022-09-02T02:27:09.282Z,7.60
2022-09-02T02:32:14.539Z,8.00
2022-09-02T02:37:25.505Z,8.00
2022-09-02T02:42:29.198Z,8.10
2022-09-02T02:47:35.298Z,8.10
2022-09-02T02:52:42.003Z,8.10
2022-09-02T02:57:47.761Z,7.60
2022-09-02T03:02:58.688Z,7.80
2022-09-02T03:08:06.048Z,7.80
2022-09-02T03:13:13.353Z,7.40
2022-09-02T03:18:19.250Z,7.40
2022-09-02T03:23:24.339Z,7.50
2022-09-02T03:28:30.424Z,7.30
2022-09-02T03:33:36.802Z,7.40
2022-09-02T03:38:42.665Z,7.50
2022-09-02T03:43:48.284Z,7.40
2022-09-02T03:48:53.797Z,7.40
2022-09-02T03:53:59.244Z,7.50
2022-09-02T03:59:06.042Z,7.30
2022-09-02T04:04:12.891Z,7.40
2022-09-02T04:09:18.662Z,7.20
2022-09-02T04:14:23.760Z,7.40
2022-09-02T04:19:28.972Z,7.30
2022-09-02T04:24:34.617Z,7.50
2022-09-02T04:29:39.626Z,6.80
2022-09-02T04:34:45.885Z,6.90
2022-09-02T04:39:52.704Z,6.60
2022-09-02T04:44:58.240Z,6.90
2022-09-02T04:50:03.255Z,7.00
2022-09-02T04:55:08.978Z,7.00
2022-09-02T05:00:15.508Z,7.00
2022-09-02T05:05:20.534Z,7.40
2022-09-02T05:10:26.189Z,7.00
2022-09-02T05:15:32.845Z,7.60
2022-09-02T05:20:44.539Z,8.00
2022-09-02T05:25:49.509Z,8.30
2022-09-02T05:30:56.093Z,8.50
2022-09-02T05:36:00.764Z,8.80
2022-09-02T05:41:10.261Z,9.20
2022-09-02T05:46:18.746Z,9.60
2022-09-02T05:51:26.028Z,9.30
2022-09-02T05:56:32.338Z,9.50
2022-09-02T06:01:38.942Z,9.80
2022-09-02T06:06:45.325Z,9.80
2022-09-02T06:11:52.700Z,9.80
2022-09-02T06:17:00.325Z,10.00
2022-09-02T06:22:06.993Z,10.30
2022-09-02T06:27:12.339Z,10.90
2022-09-02T06:32:18.017Z,11.20
2022-09-02T06:37:24.049Z,11.80
2022-09-02T06:42:29.554Z,12.40
2022-09-02T06:47:34.794Z,12.50
2022-09-02T06:52:40.614Z,12.80
2022-09-02T06:57:46.782Z,12.70
2022-09-02T07:02:54.364Z,13.50
2022-09-02T07:07:59.586Z,13.40
2022-09-02T07:13:04.951Z,14.00
2022-09-02T07:18:10.014Z,14.20
2022-09-02T07:23:17.137Z,14.80
2022-09-02T07:28:23.273Z,15.00
2022-09-02T07:33:29.137Z,15.60
2022-09-02T07:38:35.121Z,16.20
2022-09-02T07:43:41.905Z,16.00
2022-09-02T07:48:49.310Z,16.50
2022-09-02T07:53:54.841Z,17.00
2022-09-02T07:59:00.512Z,17.40
2022-09-02T08:04:07.495Z,17.30
2022-09-02T08:09:13.990Z,17.70
2022-09-02T08:14:26.206Z,17.80
2022-09-02T08:19:32.799Z,17.60
2022-09-02T08:24:37.826Z,18.00
2022-09-02T08:29:43.550Z,17.20
2022-09-02T08:34:48.567Z,18.20
2022-09-02T08:39:53.887Z,18.60
2022-09-02T08:45:02.588Z,16.90
2022-09-02T08:50:14.721Z,16.20
2022-09-02T08:55:25.095Z,15.90
2022-09-02T09:00:33.924Z,16.00
2022-09-02T09:05:54.494Z,16.00
2022-09-02T09:11:09.293Z,16.20
2022-09-02T09:16:33.588Z,16.50
2022-09-02T09:21:40.867Z,16.20
2022-09-02T09:26:47.875Z,16.30
2022-09-02T09:32:00.202Z,17.20
2022-09-02T09:37:05.970Z,16.30
2022-09-02T09:42:14.858Z,16.70
2022-09-02T09:47:23.259Z,16.50
2022-09-02T09:52:32.449Z,16.80
2022-09-02T09:57:38.058Z,17.50
2022-09-02T10:02:52.780Z,17.20
2022-09-02T10:08:10.130Z,16.90
2022-09-02T10:13:28.901Z,17.00
2022-09-02T10:18:43.175Z,18.00
2022-09-02T10:23:56.985Z,17.60
2022-09-02T10:29:25.317Z,17.00
2022-09-02T10:34:36.269Z,16.70
2022-09-02T10:40:01.388Z,17.00
2022-09-02T10:45:26.064Z,17.00
2022-09-02T10:50:37.494Z,17.20
2022-09-02T10:55:50.674Z,17.00
2022-09-02T11:00:58.285Z,18.00
2022-09-02T11:06:07.793Z,17.20
2022-09-02T11:11:22.604Z,17.50
2022-09-02T11:16:44.288Z,17.20
2022-09-02T11:22:08.044Z,16.90
2022-09-02T11:27:39.089Z,17.20
2022-09-02T11:32:32.755Z,16.90
2022-09-02T11:37:44.441Z,16.90
2022-09-02T11:43:23.791Z,16.70
2022-09-02T11:48:55.469Z,17.40
2022-09-02T11:54:04.758Z,17.50
2022-09-02T11:59:13.721Z,17.10
2022-09-02T12:04:58.829Z,16.80
2022-09-02T12:09:50.079Z,17.30
2022-09-02T12:15:02.491Z,18.70
2022-09-02T12:20:14.169Z,18.30
2022-09-02T12:25:32.843Z,17.50
2022-09-02T12:31:04.051Z,17.50
2022-09-02T12:36:11.001Z,17.70
2022-09-02T12:41:23.130Z,18.20
2022-09-02T12:46:50.080Z,17.90
2022-09-02T12:51:58.221Z,17.40
2022-09-02T12:57:05.566Z,17.30
2022-09-02T13:02:20.710Z,17.30
2022-09-02T13:07:35.262Z,17.60
2022-09-02T13:13:00.727Z,17.80
2022-09-02T13:18:14.600Z,17.70
2022-09-02T13:23:40.201Z,17.50
2022-09-02T13:29:01.229Z,17.10
2022-09-02T13:34:14.686Z,16.70
2022-09-02T13:39:21.712Z,17.00
2022-09-02T13:44:29.839Z,17.40
2022-09-02T13:49:38.121Z,17.70
2022-09-02T13:54:46.441Z,17.60
2022-09-02T13:59:55.127Z,17.60
2022-09-02T14:05:08.895Z,17.40
2022-09-02T14:10:17.933Z,17.60
2022-09-02T14:15:31.924Z,17.40
2022-09-02T14:20:41.082Z,17.10
2022-09-02T14:25:56.786Z,17.10
2022-09-02T14:31:10.438Z,18.20
2022-09-02T14:36:19.942Z,18.90
2022-09-02T14:41:30.741Z,18.70
2022-09-02T14:46:40.243Z,17.70
2022-09-02T14:51:59.485Z,17.10
2022-09-02T14:57:06.806Z,16.70
2022-09-02T15:02:27.899Z,16.60
2022-09-02T15:07:33.719Z,16.40
2022-09-02T15:12:48.589Z,17.10
2022-09-02T15:17:54.647Z,17.20
2022-09-02T15:23:00.764Z,17.10
2022-09-02T15:28:07.331Z,17.50
2022-09-02T15:33:16.954Z,17.50
2022-09-02T15:38:20.966Z,17.30
2022-09-02T15:43:26.827Z,17.00
2022-09-02T15:48:33.622Z,16.60
2022-09-02T15:53:39.802Z,16.60
2022-09-02T15:58:47.398Z,16.70
2022-09-02T16:03:54.048Z,16.90
2022-09-02T16:08:59.826Z,16.90
2022-09-02T16:14:05.452Z,16.90
2022-09-02T16:19:11.602Z,16.40
2022-09-02T16:24:18.950Z,16.30
2022-09-02T16:29:26.171Z,16.50
2022-09-02T16:34:33.514Z,16.70
2022-09-02T16:39:41.221Z,16.60
2022-09-02T16:44:51.622Z,16.40
2022-09-02T16:49:57.490Z,16.50
2022-09-02T16:55:02.867Z,16.30
2022-09-02T17:00:10.838Z,16.10
2022-09-02T17:05:18.052Z,15.90
2022-09-02T17:10:23.268Z,15.60
2022-09-02T17:15:30.034Z,15.60
2022-09-02T17:20:36.159Z,15.60
2022-09-02T17:25:42.997Z,15.20
2022-09-02T17:30:48.511Z,15.20
2022-09-02T17:35:58.970Z,15.00
2022-09-02T17:41:22.645Z,14.60
2022-09-02T17:46:27.990Z,14.30
2022-09-02T17:51:34.774Z,13.90
2022-09-02T17:56:59.381Z,13.90
2022-09-02T18:02:14.953Z,13.60
2022-09-02T18:07:52.056Z,13.20
2022-09-02T18:12:58.155Z,13.30
2022-09-02T18:18:05.637Z,13.10
2022-09-02T18:23:17.277Z,12.90
2022-09-02T18:28:34.617Z,12.90
2022-09-02T18:33:55.526Z,12.90
2022-09-02T18:39:27.108Z,12.60
2022-09-02T18:44:58.720Z,12.60
2022-09-02T18:50:06.749Z,12.60
2022-09-02T18:55:15.615Z,12.40
2022-09-02T19:00:23.094Z,12.20
2022-09-02T19:05:32.448Z,12.30
2022-09-02T19:10:43.357Z,12.20
2022-09-02T19:15:50.503Z,12.20
2022-09-02T19:21:01.156Z,12.00
2022-09-02T19:26:07.861Z,11.40
2022-09-02T19:31:27.184Z,11.30
2022-09-02T19:36:36.649Z,11.50
2022-09-02T19:41:43.640Z,11.40
2022-09-02T19:47:42.314Z,11.40
2022-09-02T19:52:02.213Z,11.30
2022-09-02T19:57:08.686Z,11.30
2022-09-02T20:02:16.853Z,11.30
2022-09-02T20:07:23.888Z,10.90
2022-09-02T20:12:32.898Z,11.00
2022-09-02T20:17:38.943Z,10.80
2022-09-02T20:22:46.095Z,11.00
2022-09-02T20:28:14.733Z,10.70
2022-09-02T20:33:23.385Z,10.70
2022-09-02T20:38:52.542Z,10.90
2022-09-02T20:44:16.820Z,10.50
2022-09-02T20:49:48.643Z,10.60
2022-09-02T20:54:57.848Z,10.40
2022-09-02T21:00:13.910Z,10.20
2022-09-02T21:05:22.837Z,9.90
2022-09-02T21:10:37.379Z,10.00
2022-09-02T21:15:57.334Z,10.30
2022-09-02T21:21:08.081Z,10.10
2022-09-02T21:26:38.112Z,10.10
2022-09-02T21:31:47.230Z,9.90
2022-09-02T21:36:56.369Z,9.90
2022-09-02T21:42:19.708Z,9.90
2022-09-02T21:47:36.646Z,9.80
2022-09-02T21:52:56.993Z,9.50
2022-09-02T21:58:36.262Z,9.30
2022-09-02T22:03:53.465Z,9.40
2022-09-02T22:09:08.989Z,9.40
2022-09-02T22:14:16.655Z,9.60
2022-09-02T22:19:26.913Z,9.50
2022-09-02T22:24:33.711Z,9.50
2022-09-02T22:29:50.941Z,9.40
2022-09-02T22:34:59.277Z,9.40
2022-09-02T22:40:08.057Z,9.00
2022-09-02T22:45:40.541Z,9.10
2022-09-02T22:51:06.591Z,9.30
2022-09-02T22:56:13.541Z,9.00
2022-09-02T23:01:32.639Z,9.00
2022-09-02T23:06:39.106Z,8.80
2022-09-02T23:12:03.253Z,8.80
2022-09-02T23:17:16.464Z,8.70
2022-09-02T23:22:46.845Z,8.70
2022-09-02T23:27:55.897Z,8.70
2022-09-02T23:33:13.450Z,8.60
2022-09-02T23:38:39.988Z,8.70
2022-09-02T23:43:46.631Z,8.30
2022-09-02T23:49:06.128Z,8.50
2022-09-02T23:54:26.664Z,8.30
